sensor_id;sensor_type;location;lat;lon;timestamp;pressure;altitude;pressure_sealevel;temperature;humidity
75775;BME280;64505;51.458;7.556;2023-05-23T00:00:26;99771.78;;;14.31;91.70
75775;BME280;64505;51.458;7.556;2023-05-23T00:02:29;99772.50;;;14.26;93.33
75775;BME280;64505;51.458;7.556;2023-05-23T00:04:30;99766.34;;;14.21;93.73
75775;BME280;64505;51.458;7.556;2023-05-23T00:06:33;99767.81;;;14.34;93.24
75775;BME280;64505;51.458;7.556;2023-05-23T00:08:35;99756.16;;;14.35;91.42
75775;BME280;64505;51.458;7.556;2023-05-23T00:10:36;99762.03;;;14.37;92.11
75775;BME280;64505;51.458;7.556;2023-05-23T00:12:38;99759.69;;;14.40;92.54
75775;BME280;64505;51.458;7.556;2023-05-23T00:14:42;99761.63;;;14.45;91.60
75775;BME280;64505;51.458;7.556;2023-05-23T00:16:44;99756.06;;;14.46;92.20
75775;BME280;64505;51.458;7.556;2023-05-23T00:18:47;99758.53;;;14.53;91.01
75775;BME280;64505;51.458;7.556;2023-05-23T00:20:50;99771.56;;;14.54;90.34
75775;BME280;64505;51.458;7.556;2023-05-23T00:22:52;99761.50;;;14.56;91.36
75775;BME280;64505;51.458;7.556;2023-05-23T00:24:54;99761.75;;;14.55;90.16
75775;BME280;64505;51.458;7.556;2023-05-23T00:26:58;99760.94;;;14.54;91.00
75775;BME280;64505;51.458;7.556;2023-05-23T00:29:00;99772.38;;;14.55;91.75
75775;BME280;64505;51.458;7.556;2023-05-23T00:31:02;99765.47;;;14.54;90.24
75775;BME280;64505;51.458;7.556;2023-05-23T00:33:04;99772.16;;;14.56;90.60
75775;BME280;64505;51.458;7.556;2023-05-23T00:35:06;99770.78;;;14.54;91.15
75775;BME280;64505;51.458;7.556;2023-05-23T00:37:08;99780.44;;;14.60;89.66
75775;BME280;64505;51.458;7.556;2023-05-23T00:39:10;99775.34;;;14.58;89.60
75775;BME280;64505;51.458;7.556;2023-05-23T00:41:20;99780.19;;;14.61;90.99
75775;BME280;64505;51.458;7.556;2023-05-23T00:43:21;99779.31;;;14.56;90.60
75775;BME280;64505;51.458;7.556;2023-05-23T00:45:23;99780.38;;;14.55;91.25
75775;BME280;64505;51.458;7.556;2023-05-23T00:47:25;99779.88;;;14.58;90.77
75775;BME280;64505;51.458;7.556;2023-05-23T00:49:26;99783.91;;;14.60;90.75
75775;BME280;64505;51.458;7.556;2023-05-23T00:51:28;99782.28;;;14.59;90.90
75775;BME280;64505;51.458;7.556;2023-05-23T00:53:32;99787.94;;;14.63;91.43
75775;BME280;64505;51.458;7.556;2023-05-23T00:55:35;99791.31;;;14.58;90.77
75775;BME280;64505;51.458;7.556;2023-05-23T00:57:37;99793.97;;;14.58;91.27
75775;BME280;64505;51.458;7.556;2023-05-23T00:59:41;99796.91;;;14.57;90.62
75775;BME280;64505;51.458;7.556;2023-05-23T01:01:43;99797.56;;;14.47;91.01
75775;BME280;64505;51.458;7.556;2023-05-23T01:03:47;99807.97;;;14.49;90.98
75775;BME280;64505;51.458;7.556;2023-05-23T01:05:50;99797.31;;;14.49;88.82
75775;BME280;64505;51.458;7.556;2023-05-23T01:07:55;99800.31;;;14.52;90.33
75775;BME280;64505;51.458;7.556;2023-05-23T01:09:57;99802.66;;;14.49;89.41
75775;BME280;64505;51.458;7.556;2023-05-23T01:14:36;99805.84;;;14.51;88.42
75775;BME280;64505;51.458;7.556;2023-05-23T01:18:58;99804.19;;;14.45;88.20
75775;BME280;64505;51.458;7.556;2023-05-23T01:21:16;99796.63;;;14.37;87.67
75775;BME280;64505;51.458;7.556;2023-05-23T01:28:20;99808.44;;;14.29;87.87
75775;BME280;64505;51.458;7.556;2023-05-23T01:30:27;99806.84;;;14.28;88.94
75775;BME280;64505;51.458;7.556;2023-05-23T01:32:31;99797.25;;;14.27;88.86
75775;BME280;64505;51.458;7.556;2023-05-23T01:34:34;99805.00;;;14.12;88.78
75775;BME280;64505;51.458;7.556;2023-05-23T01:36:42;99808.56;;;14.17;88.58
75775;BME280;64505;51.458;7.556;2023-05-23T01:38:44;99804.28;;;14.16;88.07
75775;BME280;64505;51.458;7.556;2023-05-23T01:40:45;99808.25;;;14.14;87.83
75775;BME280;64505;51.458;7.556;2023-05-23T01:42:47;99816.63;;;14.06;88.24
75775;BME280;64505;51.458;7.556;2023-05-23T01:44:51;99819.69;;;13.98;88.31
75775;BME280;64505;51.458;7.556;2023-05-23T01:46:52;99809.94;;;14.03;87.75
75775;BME280;64505;51.458;7.556;2023-05-23T01:48:57;99805.41;;;14.04;88.46
75775;BME280;64505;51.458;7.556;2023-05-23T01:51:02;99819.59;;;14.09;87.86
75775;BME280;64505;51.458;7.556;2023-05-23T01:53:04;99823.94;;;14.15;89.13
75775;BME280;64505;51.458;7.556;2023-05-23T01:55:06;99823.97;;;13.99;88.69
75775;BME280;64505;51.458;7.556;2023-05-23T01:57:11;99811.59;;;13.93;87.88
75775;BME280;64505;51.458;7.556;2023-05-23T01:59:12;99814.47;;;14.03;90.04
75775;BME280;64505;51.458;7.556;2023-05-23T02:01:14;99814.47;;;14.03;90.15
75775;BME280;64505;51.458;7.556;2023-05-23T02:03:16;99815.16;;;13.98;88.87
75775;BME280;64505;51.458;7.556;2023-05-23T02:05:18;99818.69;;;14.04;88.80
75775;BME280;64505;51.458;7.556;2023-05-23T02:07:20;99827.75;;;14.03;89.78
75775;BME280;64505;51.458;7.556;2023-05-23T02:09:23;99820.31;;;14.05;88.54
75775;BME280;64505;51.458;7.556;2023-05-23T02:11:25;99824.34;;;14.07;89.93
75775;BME280;64505;51.458;7.556;2023-05-23T02:13:27;99826.44;;;14.05;88.65
75775;BME280;64505;51.458;7.556;2023-05-23T02:15:29;99835.47;;;14.04;89.45
75775;BME280;64505;51.458;7.556;2023-05-23T02:17:31;99828.78;;;14.02;89.27
75775;BME280;64505;51.458;7.556;2023-05-23T02:19:32;99833.88;;;14.03;89.67
75775;BME280;64505;51.458;7.556;2023-05-23T02:21:34;99831.75;;;14.05;91.04
75775;BME280;64505;51.458;7.556;2023-05-23T02:23:36;99831.22;;;14.03;89.68
75775;BME280;64505;51.458;7.556;2023-05-23T02:25:38;99837.09;;;14.05;89.68
75775;BME280;64505;51.458;7.556;2023-05-23T02:27:40;99831.75;;;14.05;90.63
75775;BME280;64505;51.458;7.556;2023-05-23T02:29:41;99834.66;;;14.04;91.05
75775;BME280;64505;51.458;7.556;2023-05-23T02:31:43;99833.47;;;13.95;90.07
75775;BME280;64505;51.458;7.556;2023-05-23T02:33:45;99837.56;;;14.02;90.67
75775;BME280;64505;51.458;7.556;2023-05-23T02:35:46;99834.09;;;14.02;90.29
75775;BME280;64505;51.458;7.556;2023-05-23T02:37:50;99834.50;;;13.94;90.01
75775;BME280;64505;51.458;7.556;2023-05-23T02:39:52;99828.47;;;13.98;90.13
75775;BME280;64505;51.458;7.556;2023-05-23T02:41:53;99836.94;;;13.95;90.64
75775;BME280;64505;51.458;7.556;2023-05-23T02:43:55;99840.41;;;13.96;90.83
75775;BME280;64505;51.458;7.556;2023-05-23T02:45:56;99831.69;;;14.00;91.15
75775;BME280;64505;51.458;7.556;2023-05-23T02:47:58;99837.00;;;14.00;92.37
75775;BME280;64505;51.458;7.556;2023-05-23T02:50:00;99835.16;;;14.01;91.84
75775;BME280;64505;51.458;7.556;2023-05-23T02:52:02;99834.09;;;14.02;91.87
75775;BME280;64505;51.458;7.556;2023-05-23T02:54:03;99832.25;;;14.02;92.39
75775;BME280;64505;51.458;7.556;2023-05-23T02:56:05;99836.13;;;13.95;91.95
75775;BME280;64505;51.458;7.556;2023-05-23T02:58:09;99838.06;;;13.99;91.40
75775;BME280;64505;51.458;7.556;2023-05-23T03:00:11;99831.13;;;13.98;91.99
75775;BME280;64505;51.458;7.556;2023-05-23T03:02:13;99832.47;;;14.01;92.03
75775;BME280;64505;51.458;7.556;2023-05-23T03:04:15;99829.75;;;13.96;92.32
75775;BME280;64505;51.458;7.556;2023-05-23T03:06:17;99825.56;;;14.00;91.80
75775;BME280;64505;51.458;7.556;2023-05-23T03:08:18;99830.56;;;13.96;91.27
75775;BME280;64505;51.458;7.556;2023-05-23T03:10:20;99838.06;;;13.99;92.22
75775;BME280;64505;51.458;7.556;2023-05-23T03:12:22;99837.25;;;13.99;91.19
75775;BME280;64505;51.458;7.556;2023-05-23T03:14:23;99842.88;;;14.02;89.26
75775;BME280;64505;51.458;7.556;2023-05-23T03:16:25;99840.72;;;13.99;90.82
75775;BME280;64505;51.458;7.556;2023-05-23T03:18:27;99836.22;;;14.00;90.98
75775;BME280;64505;51.458;7.556;2023-05-23T03:20:28;99832.31;;;14.07;90.41
75775;BME280;64505;51.458;7.556;2023-05-23T03:22:30;99836.03;;;14.06;91.76
75775;BME280;64505;51.458;7.556;2023-05-23T03:24:32;99834.66;;;14.04;91.03
75775;BME280;64505;51.458;7.556;2023-05-23T03:26:33;99833.56;;;14.00;91.05
75775;BME280;64505;51.458;7.556;2023-05-23T03:28:35;99838.38;;;14.03;91.30
75775;BME280;64505;51.458;7.556;2023-05-23T03:30:37;99838.13;;;14.04;91.36
75775;BME280;64505;51.458;7.556;2023-05-23T03:32:39;99843.38;;;13.99;91.50
75775;BME280;64505;51.458;7.556;2023-05-23T03:34:40;99841.59;;;14.05;91.17
75775;BME280;64505;51.458;7.556;2023-05-23T03:36:42;99840.56;;;14.06;91.70
75775;BME280;64505;51.458;7.556;2023-05-23T03:38:44;99847.72;;;14.05;90.56
75775;BME280;64505;51.458;7.556;2023-05-23T03:40:45;99841.09;;;14.08;91.92
75775;BME280;64505;51.458;7.556;2023-05-23T03:42:48;99849.81;;;14.03;91.50
75775;BME280;64505;51.458;7.556;2023-05-23T03:45:01;99839.91;;;13.99;92.04
75775;BME280;64505;51.458;7.556;2023-05-23T03:47:06;99849.09;;;14.08;90.96
75775;BME280;64505;51.458;7.556;2023-05-23T03:49:08;99849.66;;;14.10;91.49
75775;BME280;64505;51.458;7.556;2023-05-23T03:51:09;99845.38;;;14.09;90.97
75775;BME280;64505;51.458;7.556;2023-05-23T03:53:13;99857.72;;;13.98;91.65
75775;BME280;64505;51.458;7.556;2023-05-23T03:55:15;99855.38;;;14.02;91.55
75775;BME280;64505;51.458;7.556;2023-05-23T03:57:17;99864.72;;;14.04;91.81
75775;BME280;64505;51.458;7.556;2023-05-23T03:59:18;99858.13;;;14.07;91.45
75775;BME280;64505;51.458;7.556;2023-05-23T04:01:20;99871.09;;;14.03;89.89
75775;BME280;64505;51.458;7.556;2023-05-23T04:03:22;99863.13;;;14.03;92.08
75775;BME280;64505;51.458;7.556;2023-05-23T04:05:24;99868.44;;;14.03;91.06
75775;BME280;64505;51.458;7.556;2023-05-23T04:07:26;99874.09;;;14.07;89.90
75775;BME280;64505;51.458;7.556;2023-05-23T04:09:27;99873.75;;;14.03;91.84
75775;BME280;64505;51.458;7.556;2023-05-23T04:11:29;99873.97;;;14.02;91.55
75775;BME280;64505;51.458;7.556;2023-05-23T04:13:31;99875.28;;;13.99;91.42
75775;BME280;64505;51.458;7.556;2023-05-23T04:15:33;99884.28;;;13.98;91.18
75775;BME280;64505;51.458;7.556;2023-05-23T04:17:35;99886.63;;;13.95;91.54
75775;BME280;64505;51.458;7.556;2023-05-23T04:19:39;99887.13;;;13.92;91.22
75775;BME280;64505;51.458;7.556;2023-05-23T04:21:44;99883.81;;;13.85;91.99
75775;BME280;64505;51.458;7.556;2023-05-23T04:23:46;99886.03;;;13.93;92.09
75775;BME280;64505;51.458;7.556;2023-05-23T04:25:47;99894.94;;;13.98;93.11
75775;BME280;64505;51.458;7.556;2023-05-23T04:27:49;99889.84;;;13.97;92.35
75775;BME280;64505;51.458;7.556;2023-05-23T04:29:51;99887.28;;;13.85;91.76
75775;BME280;64505;51.458;7.556;2023-05-23T04:31:52;99892.59;;;13.85;91.81
75775;BME280;64505;51.458;7.556;2023-05-23T04:33:55;99895.81;;;13.87;92.14
75775;BME280;64505;51.458;7.556;2023-05-23T04:35:58;99895.38;;;13.78;92.12
75775;BME280;64505;51.458;7.556;2023-05-23T04:37:59;99893.16;;;13.87;92.88
75775;BME280;64505;51.458;7.556;2023-05-23T04:40:02;99888.16;;;13.91;92.32
75775;BME280;64505;51.458;7.556;2023-05-23T04:42:04;99888.38;;;13.89;91.51
75775;BME280;64505;51.458;7.556;2023-05-23T04:44:10;99880.28;;;13.96;91.95
75775;BME280;64505;51.458;7.556;2023-05-23T04:46:12;99892.81;;;13.84;92.22
75775;BME280;64505;51.458;7.556;2023-05-23T04:48:14;99896.34;;;13.89;92.33
75775;BME280;64505;51.458;7.556;2023-05-23T04:50:17;99899.50;;;13.86;91.75
75775;BME280;64505;51.458;7.556;2023-05-23T04:52:19;99900.97;;;13.94;90.84
75775;BME280;64505;51.458;7.556;2023-05-23T04:54:21;99905.78;;;13.97;90.63
75775;BME280;64505;51.458;7.556;2023-05-23T04:56:23;99901.78;;;13.94;90.93
75775;BME280;64505;51.458;7.556;2023-05-23T04:58:27;99910.72;;;13.88;91.69
75775;BME280;64505;51.458;7.556;2023-05-23T05:00:29;99906.22;;;13.89;91.08
75775;BME280;64505;51.458;7.556;2023-05-23T05:02:30;99912.88;;;13.91;91.81
75775;BME280;64505;51.458;7.556;2023-05-23T05:04:35;99910.06;;;13.98;91.67
75775;BME280;64505;51.458;7.556;2023-05-23T05:06:39;99910.31;;;13.96;91.02
75775;BME280;64505;51.458;7.556;2023-05-23T05:08:42;99913.00;;;13.96;91.45
75775;BME280;64505;51.458;7.556;2023-05-23T05:10:43;99914.19;;;13.89;91.14
75775;BME280;64505;51.458;7.556;2023-05-23T05:12:46;99917.06;;;13.87;91.33
75775;BME280;64505;51.458;7.556;2023-05-23T05:14:49;99915.66;;;13.96;91.12
75775;BME280;64505;51.458;7.556;2023-05-23T05:16:51;99929.72;;;13.97;91.15
75775;BME280;64505;51.458;7.556;2023-05-23T05:18:55;99917.50;;;13.96;90.73
75775;BME280;64505;51.458;7.556;2023-05-23T05:20:57;99917.34;;;14.02;91.00
75775;BME280;64505;51.458;7.556;2023-05-23T05:22:59;99920.47;;;13.99;90.89
75775;BME280;64505;51.458;7.556;2023-05-23T05:25:01;99920.56;;;14.04;91.77
75775;BME280;64505;51.458;7.556;2023-05-23T05:27:04;99925.06;;;14.04;91.21
75775;BME280;64505;51.458;7.556;2023-05-23T05:29:06;99925.63;;;14.06;90.50
75775;BME280;64505;51.458;7.556;2023-05-23T05:31:07;99920.88;;;14.08;90.82
75775;BME280;64505;51.458;7.556;2023-05-23T05:33:10;99924.50;;;14.02;91.40
75775;BME280;64505;51.458;7.556;2023-05-23T05:35:12;99922.94;;;13.89;91.21
75775;BME280;64505;51.458;7.556;2023-05-23T05:37:17;99921.03;;;14.01;90.64
75775;BME280;64505;51.458;7.556;2023-05-23T05:39:18;99925.88;;;14.04;91.05
75775;BME280;64505;51.458;7.556;2023-05-23T05:41:20;99929.44;;;14.10;90.54
75775;BME280;64505;51.458;7.556;2023-05-23T05:43:22;99952.63;;;13.98;91.65
75775;BME280;64505;51.458;7.556;2023-05-23T05:45:24;99947.47;;;14.08;91.16
75775;BME280;64505;51.458;7.556;2023-05-23T05:47:26;99942.88;;;14.03;90.54
75775;BME280;64505;51.458;7.556;2023-05-23T05:49:28;99952.88;;;13.96;90.86
75775;BME280;64505;51.458;7.556;2023-05-23T05:51:29;99953.53;;;14.03;90.99
75775;BME280;64505;51.458;7.556;2023-05-23T05:53:31;99958.09;;;14.08;91.02
75775;BME280;64505;51.458;7.556;2023-05-23T05:55:33;99953.03;;;14.06;90.48
75775;BME280;64505;51.458;7.556;2023-05-23T05:57:35;99949.47;;;14.01;90.74
75775;BME280;64505;51.458;7.556;2023-05-23T05:59:39;99952.78;;;14.08;89.80
75775;BME280;64505;51.458;7.556;2023-05-23T06:01:40;99954.88;;;14.06;88.64
75775;BME280;64505;51.458;7.556;2023-05-23T06:03:42;99957.38;;;13.96;89.82
75775;BME280;64505;51.458;7.556;2023-05-23T06:05:45;99954.47;;;13.97;90.04
75775;BME280;64505;51.458;7.556;2023-05-23T06:07:47;99956.19;;;14.03;89.61
75775;BME280;64505;51.458;7.556;2023-05-23T06:09:50;99962.88;;;14.06;90.23
75775;BME280;64505;51.458;7.556;2023-05-23T06:11:51;99961.03;;;13.78;89.90
75775;BME280;64505;51.458;7.556;2023-05-23T06:13:53;99965.09;;;13.97;90.68
75775;BME280;64505;51.458;7.556;2023-05-23T06:15:55;99960.84;;;13.96;89.47
75775;BME280;64505;51.458;7.556;2023-05-23T06:17:57;99971.22;;;13.98;89.81
75775;BME280;64505;51.458;7.556;2023-05-23T06:19:58;99964.28;;;13.97;90.42
75775;BME280;64505;51.458;7.556;2023-05-23T06:22:00;99969.84;;;13.95;90.44
75775;BME280;64505;51.458;7.556;2023-05-23T06:24:02;99962.75;;;14.01;89.53
75775;BME280;64505;51.458;7.556;2023-05-23T06:26:04;99962.16;;;13.82;90.07
75775;BME280;64505;51.458;7.556;2023-05-23T06:28:08;99969.03;;;13.95;90.21
75775;BME280;64505;51.458;7.556;2023-05-23T06:30:10;99978.19;;;13.87;90.04
75775;BME280;64505;51.458;7.556;2023-05-23T06:32:12;99971.13;;;13.93;89.67
75775;BME280;64505;51.458;7.556;2023-05-23T06:34:14;99980.63;;;13.89;90.67
75775;BME280;64505;51.458;7.556;2023-05-23T06:36:16;99978.91;;;13.82;89.40
75775;BME280;64505;51.458;7.556;2023-05-23T06:38:18;99988.94;;;13.92;89.48
75775;BME280;64505;51.458;7.556;2023-05-23T06:40:19;99989.31;;;13.84;88.17
75775;BME280;64505;51.458;7.556;2023-05-23T06:42:21;99978.09;;;13.82;89.50
75775;BME280;64505;51.458;7.556;2023-05-23T06:44:22;99982.81;;;13.92;88.64
75775;BME280;64505;51.458;7.556;2023-05-23T06:46:24;99986.66;;;13.84;89.49
75775;BME280;64505;51.458;7.556;2023-05-23T06:48:26;99990.34;;;13.83;89.65
75775;BME280;64505;51.458;7.556;2023-05-23T06:50:27;99994.72;;;13.89;88.65
75775;BME280;64505;51.458;7.556;2023-05-23T06:52:30;99989.16;;;13.91;88.67
75775;BME280;64505;51.458;7.556;2023-05-23T06:54:31;99989.22;;;13.79;89.52
75775;BME280;64505;51.458;7.556;2023-05-23T06:56:33;99996.03;;;13.75;90.38
75775;BME280;64505;51.458;7.556;2023-05-23T06:58:34;100005.00;;;13.86;91.33
75775;BME280;64505;51.458;7.556;2023-05-23T07:00:36;100001.75;;;13.67;89.90
75775;BME280;64505;51.458;7.556;2023-05-23T07:02:38;100001.47;;;13.80;90.40
75775;BME280;64505;51.458;7.556;2023-05-23T07:04:40;100000.19;;;13.71;90.76
75775;BME280;64505;51.458;7.556;2023-05-23T07:06:42;100009.31;;;13.75;89.29
75775;BME280;64505;51.458;7.556;2023-05-23T07:08:43;100011.91;;;13.70;90.62
75775;BME280;64505;51.458;7.556;2023-05-23T07:10:47;100016.75;;;13.61;89.83
75775;BME280;64505;51.458;7.556;2023-05-23T07:12:48;100017.09;;;13.65;89.24
75775;BME280;64505;51.458;7.556;2023-05-23T07:14:50;100019.41;;;13.61;89.57
75775;BME280;64505;51.458;7.556;2023-05-23T07:16:51;100031.91;;;13.61;90.90
75775;BME280;64505;51.458;7.556;2023-05-23T07:18:53;100028.88;;;13.69;90.98
75775;BME280;64505;51.458;7.556;2023-05-23T07:20:55;100037.13;;;13.56;90.35
75775;BME280;64505;51.458;7.556;2023-05-23T07:22:56;100036.41;;;13.60;90.45
75775;BME280;64505;51.458;7.556;2023-05-23T07:24:58;100035.16;;;13.51;90.42
75775;BME280;64505;51.458;7.556;2023-05-23T07:27:00;100039.78;;;13.44;90.75
75775;BME280;64505;51.458;7.556;2023-05-23T07:29:01;100034.69;;;13.43;91.32
75775;BME280;64505;51.458;7.556;2023-05-23T07:31:03;100036.91;;;13.34;90.86
75775;BME280;64505;51.458;7.556;2023-05-23T07:33:05;100043.34;;;13.50;91.44
75775;BME280;64505;51.458;7.556;2023-05-23T07:35:07;100045.91;;;13.56;91.62
75775;BME280;64505;51.458;7.556;2023-05-23T07:37:08;100041.50;;;13.39;91.90
75775;BME280;64505;51.458;7.556;2023-05-23T07:39:10;100045.69;;;13.35;91.33
75775;BME280;64505;51.458;7.556;2023-05-23T07:41:11;100053.06;;;13.32;91.26
75775;BME280;64505;51.458;7.556;2023-05-23T07:43:13;100057.09;;;13.47;92.17
75775;BME280;64505;51.458;7.556;2023-05-23T07:45:15;100059.75;;;13.47;90.23
75775;BME280;64505;51.458;7.556;2023-05-23T07:47:16;100069.69;;;13.51;91.10
75775;BME280;64505;51.458;7.556;2023-05-23T07:49:18;100068.91;;;13.27;90.85
75775;BME280;64505;51.458;7.556;2023-05-23T07:51:20;100068.41;;;13.42;89.71
75775;BME280;64505;51.458;7.556;2023-05-23T07:53:22;100076.03;;;13.50;92.06
75775;BME280;64505;51.458;7.556;2023-05-23T07:55:23;100069.00;;;13.56;91.96
75775;BME280;64505;51.458;7.556;2023-05-23T07:57:25;100077.66;;;13.40;89.67
75775;BME280;64505;51.458;7.556;2023-05-23T07:59:27;100077.44;;;13.41;89.25
75775;BME280;64505;51.458;7.556;2023-05-23T08:01:30;100074.06;;;13.57;87.92
75775;BME280;64505;51.458;7.556;2023-05-23T08:03:32;100074.28;;;13.67;89.74
75775;BME280;64505;51.458;7.556;2023-05-23T08:05:33;100071.75;;;13.72;89.99
75775;BME280;64505;51.458;7.556;2023-05-23T08:07:35;100068.41;;;13.65;90.89
75775;BME280;64505;51.458;7.556;2023-05-23T08:09:39;100077.31;;;13.59;89.15
75775;BME280;64505;51.458;7.556;2023-05-23T08:11:41;100080.31;;;13.51;88.54
75775;BME280;64505;51.458;7.556;2023-05-23T08:13:43;100083.31;;;13.31;89.62
75775;BME280;64505;51.458;7.556;2023-05-23T08:15:44;100080.31;;;13.40;89.00
75775;BME280;64505;51.458;7.556;2023-05-23T08:17:46;100088.84;;;13.53;89.28
75775;BME280;64505;51.458;7.556;2023-05-23T08:19:48;100085.75;;;13.56;88.71
75775;BME280;64505;51.458;7.556;2023-05-23T08:21:50;100087.81;;;13.43;88.19
75775;BME280;64505;51.458;7.556;2023-05-23T08:23:53;100083.56;;;13.42;87.41
75775;BME280;64505;51.458;7.556;2023-05-23T08:25:55;100093.00;;;13.61;86.41
75775;BME280;64505;51.458;7.556;2023-05-23T08:27:58;100098.44;;;13.66;88.19
75775;BME280;64505;51.458;7.556;2023-05-23T08:30:00;100093.81;;;13.61;87.45
75775;BME280;64505;51.458;7.556;2023-05-23T08:32:03;100091.03;;;13.68;87.50
75775;BME280;64505;51.458;7.556;2023-05-23T08:34:06;100100.41;;;13.70;87.74
75775;BME280;64505;51.458;7.556;2023-05-23T08:36:08;100100.63;;;13.46;87.40
75775;BME280;64505;51.458;7.556;2023-05-23T08:38:09;100103.16;;;13.64;86.83
75775;BME280;64505;51.458;7.556;2023-05-23T08:40:18;100101.22;;;13.59;87.16
75775;BME280;64505;51.458;7.556;2023-05-23T08:42:21;100099.81;;;13.68;88.15
75775;BME280;64505;51.458;7.556;2023-05-23T08:44:23;100099.72;;;13.63;88.08
75775;BME280;64505;51.458;7.556;2023-05-23T08:46:25;100104.09;;;13.69;87.32
75775;BME280;64505;51.458;7.556;2023-05-23T08:48:28;100101.31;;;13.64;85.84
75775;BME280;64505;51.458;7.556;2023-05-23T08:50:30;100102.94;;;13.54;86.67
75775;BME280;64505;51.458;7.556;2023-05-23T08:52:34;100111.13;;;13.75;87.80
75775;BME280;64505;51.458;7.556;2023-05-23T08:54:36;100112.88;;;13.47;86.57
75775;BME280;64505;51.458;7.556;2023-05-23T08:56:38;100111.59;;;13.61;85.91
75775;BME280;64505;51.458;7.556;2023-05-23T08:58:43;100116.09;;;13.60;87.19
75775;BME280;64505;51.458;7.556;2023-05-23T09:00:48;100108.94;;;13.61;85.24
75775;BME280;64505;51.458;7.556;2023-05-23T09:02:50;100122.94;;;13.68;85.44
75775;BME280;64505;51.458;7.556;2023-05-23T09:04:53;100120.75;;;13.65;85.04
75775;BME280;64505;51.458;7.556;2023-05-23T09:06:55;100124.91;;;13.49;86.49
75775;BME280;64505;51.458;7.556;2023-05-23T09:08:58;100134.47;;;13.39;86.39
75775;BME280;64505;51.458;7.556;2023-05-23T09:11:01;100138.84;;;13.10;88.24
75775;BME280;64505;51.458;7.556;2023-05-23T09:13:06;100137.81;;;13.46;88.10
75775;BME280;64505;51.458;7.556;2023-05-23T09:15:08;100143.38;;;13.44;85.92
75775;BME280;64505;51.458;7.556;2023-05-23T09:17:15;100140.84;;;13.38;86.25
75775;BME280;64505;51.458;7.556;2023-05-23T09:19:18;100139.91;;;13.44;85.49
75775;BME280;64505;51.458;7.556;2023-05-23T09:21:20;100150.09;;;13.58;85.12
75775;BME280;64505;51.458;7.556;2023-05-23T09:23:24;100141.56;;;13.56;86.10
75775;BME280;64505;51.458;7.556;2023-05-23T09:25:26;100149.16;;;13.41;85.15
75775;BME280;64505;51.458;7.556;2023-05-23T09:27:27;100153.56;;;13.59;85.00
75775;BME280;64505;51.458;7.556;2023-05-23T09:29:29;100155.88;;;13.67;85.26
75775;BME280;64505;51.458;7.556;2023-05-23T09:31:32;100146.16;;;13.72;85.26
75775;BME280;64505;51.458;7.556;2023-05-23T09:33:46;100157.78;;;14.06;84.91
75775;BME280;64505;51.458;7.556;2023-05-23T09:35:48;100148.53;;;13.97;83.20
75775;BME280;64505;51.458;7.556;2023-05-23T09:37:50;100159.66;;;13.94;84.77
75775;BME280;64505;51.458;7.556;2023-05-23T09:39:52;100162.22;;;13.66;84.03
75775;BME280;64505;51.458;7.556;2023-05-23T09:41:54;100164.06;;;13.65;83.79
75775;BME280;64505;51.458;7.556;2023-05-23T09:43:56;100159.78;;;13.64;85.28
75775;BME280;64505;51.458;7.556;2023-05-23T09:46:09;100171.81;;;13.55;85.34
75775;BME280;64505;51.458;7.556;2023-05-23T09:48:11;100163.59;;;13.34;85.25
75775;BME280;64505;51.458;7.556;2023-05-23T09:50:14;100169.44;;;13.12;85.77
75775;BME280;64505;51.458;7.556;2023-05-23T09:52:16;100160.81;;;13.28;85.75
75775;BME280;64505;51.458;7.556;2023-05-23T09:54:20;100174.75;;;13.12;86.20
75775;BME280;64505;51.458;7.556;2023-05-23T09:56:22;100164.59;;;13.21;85.50
75775;BME280;64505;51.458;7.556;2023-05-23T09:58:26;100169.59;;;13.29;85.24
75775;BME280;64505;51.458;7.556;2023-05-23T10:00:28;100168.09;;;13.33;84.72
75775;BME280;64505;51.458;7.556;2023-05-23T10:04:51;100177.91;;;12.91;86.36
75775;BME280;64505;51.458;7.556;2023-05-23T10:06:56;100177.19;;;13.14;86.09
75775;BME280;64505;51.458;7.556;2023-05-23T10:09:04;100175.00;;;12.93;86.30
75775;BME280;64505;51.458;7.556;2023-05-23T10:13:34;100169.34;;;13.19;84.86
75775;BME280;64505;51.458;7.556;2023-05-23T10:15:38;100171.94;;;13.49;84.33
75775;BME280;64505;51.458;7.556;2023-05-23T10:18:01;100177.91;;;13.32;83.71
75775;BME280;64505;51.458;7.556;2023-05-23T10:20:08;100184.59;;;13.23;83.77
75775;BME280;64505;51.458;7.556;2023-05-23T10:22:11;100189.00;;;13.64;84.71
75775;BME280;64505;51.458;7.556;2023-05-23T10:24:14;100191.50;;;13.24;82.11
75775;BME280;64505;51.458;7.556;2023-05-23T10:26:17;100203.09;;;13.30;81.60
75775;BME280;64505;51.458;7.556;2023-05-23T10:28:19;100190.16;;;13.34;82.34
75775;BME280;64505;51.458;7.556;2023-05-23T10:30:21;100202.06;;;13.31;81.51
75775;BME280;64505;51.458;7.556;2023-05-23T10:32:23;100200.34;;;13.60;80.25
75775;BME280;64505;51.458;7.556;2023-05-23T10:37:04;100195.63;;;13.73;79.29
75775;BME280;64505;51.458;7.556;2023-05-23T10:39:20;100199.91;;;13.63;79.70
75775;BME280;64505;51.458;7.556;2023-05-23T10:41:37;100197.69;;;13.83;81.19
75775;BME280;64505;51.458;7.556;2023-05-23T10:43:56;100209.13;;;13.60;80.22
75775;BME280;64505;51.458;7.556;2023-05-23T10:46:01;100211.88;;;13.30;81.25
75775;BME280;64505;51.458;7.556;2023-05-23T10:48:19;100226.28;;;13.23;81.64
75775;BME280;64505;51.458;7.556;2023-05-23T10:50:31;100221.53;;;13.25;80.54
75775;BME280;64505;51.458;7.556;2023-05-23T10:52:40;100232.34;;;13.42;79.94
75775;BME280;64505;51.458;7.556;2023-05-23T10:54:52;100224.47;;;13.47;78.60
75775;BME280;64505;51.458;7.556;2023-05-23T10:57:04;100231.75;;;13.51;77.44
75775;BME280;64505;51.458;7.556;2023-05-23T10:59:06;100227.72;;;13.72;76.98
75775;BME280;64505;51.458;7.556;2023-05-23T11:01:08;100226.00;;;14.01;77.05
75775;BME280;64505;51.458;7.556;2023-05-23T11:03:13;100231.53;;;14.34;74.54
75775;BME280;64505;51.458;7.556;2023-05-23T11:07:31;100233.56;;;14.95;72.77